New River, Tennessee
Current Conditions -  °F | °C
As of 12:56 PM on Monday 24 Nov 2014 (Local Time) from KEKQ Reporting Station
Broken Clouds Broken Clouds  
Wind Chill: 63°   Ceiling: 4800
Heat Index: 63°   Visibility: 10mi
Dew Point: 48°   Wind: 21mph
Humidity: 58%   Direction: 260°W
Pressure: 29.72"   Gusts: 28mph
Location:  36.4337°N, 84.5593°W
Report Text: KEKQ 241756Z AUTO 26018G24KT 10SM SCT038 BKN048 BKN060 17/09 A2972 RMK AO2 51030 T01720088 10188 20166 BKN V SCT PK WND 23031/1700 SLP062
Loading
Personal Weather Stations






























Interactive Weather Map New forecast layout! Learn more

10-Day Weather Forecast

Advertisements
Track Severe Weather on mobile